createdAt,value
2017-12-29T00:00:33.933Z,4.49
2017-12-29T00:03:03.437Z,4.52
2017-12-29T00:05:33.037Z,4.50
2017-12-29T00:08:04.062Z,4.58
2017-12-29T00:10:34.618Z,4.55
2017-12-29T00:13:04.808Z,4.58
2017-12-29T00:15:34.034Z,4.50
2017-12-29T00:18:04.132Z,4.46
2017-12-29T00:20:34.429Z,4.45
2017-12-29T00:23:03.884Z,4.40
2017-12-29T00:25:33.161Z,4.36
2017-12-29T00:28:04.744Z,4.26
2017-12-29T00:30:33.979Z,4.20
2017-12-29T00:33:03.492Z,4.18
2017-12-29T00:35:33.274Z,4.14
2017-12-29T00:38:05.210Z,4.15
2017-12-29T00:40:34.514Z,4.05
2017-12-29T00:43:04.490Z,4.04
2017-12-29T00:45:34.657Z,4.07
2017-12-29T00:48:04.726Z,3.97
2017-12-29T00:50:34.246Z,3.98
2017-12-29T00:53:05.463Z,3.92
2017-12-29T00:55:35.686Z,3.93
2017-12-29T00:58:06.725Z,3.92
2017-12-29T01:00:35.989Z,3.90
2017-12-29T01:03:05.675Z,3.85
2017-12-29T01:05:35.163Z,3.84
2017-12-29T01:08:05.977Z,3.83
2017-12-29T01:10:35.172Z,3.81
2017-12-29T01:13:05.141Z,3.82
2017-12-29T01:15:34.451Z,3.85
2017-12-29T01:18:04.838Z,3.87
2017-12-29T01:20:35.384Z,3.81
2017-12-29T01:23:05.102Z,3.78
2017-12-29T01:25:35.527Z,3.78
2017-12-29T01:28:07.300Z,3.75
2017-12-29T01:30:38.646Z,3.70
2017-12-29T01:33:13.436Z,3.70
2017-12-29T01:35:43.750Z,3.67
2017-12-29T01:38:13.926Z,3.67
2017-12-29T01:40:43.296Z,3.63
2017-12-29T01:43:13.058Z,3.58
2017-12-29T01:45:42.357Z,3.59
2017-12-29T01:48:11.797Z,3.59
2017-12-29T01:50:41.171Z,3.55
2017-12-29T01:53:10.537Z,3.56
2017-12-29T01:55:40.097Z,3.55
2017-12-29T01:58:09.694Z,3.52
2017-12-29T02:00:38.950Z,3.54
2017-12-29T02:03:08.483Z,3.50
2017-12-29T02:05:37.731Z,3.49
2017-12-29T02:08:07.131Z,3.42
2017-12-29T02:10:37.047Z,3.43
2017-12-29T02:13:06.364Z,3.44
2017-12-29T02:15:35.675Z,3.37
2017-12-29T02:18:06.259Z,3.37
2017-12-29T02:20:35.498Z,3.37
2017-12-29T02:23:04.925Z,3.34
2017-12-29T02:25:34.525Z,3.33
2017-12-29T02:28:04.463Z,3.35
2017-12-29T02:30:34.424Z,3.34
2017-12-29T02:33:04.083Z,3.32
2017-12-29T02:35:33.340Z,3.28
2017-12-29T02:38:04.420Z,3.28
2017-12-29T02:40:33.976Z,3.23
2017-12-29T02:43:03.532Z,3.23
2017-12-29T02:45:32.777Z,3.21
2017-12-29T02:48:02.951Z,3.19
2017-12-29T02:50:32.226Z,3.15
2017-12-29T02:53:01.605Z,3.18
2017-12-29T02:55:31.164Z,3.16
2017-12-29T02:58:00.402Z,3.19
2017-12-29T03:00:29.628Z,3.17
2017-12-29T03:02:59.157Z,3.19
2017-12-29T03:05:28.412Z,3.11
2017-12-29T03:07:57.642Z,3.13
2017-12-29T03:10:27.162Z,3.11
2017-12-29T03:12:57.277Z,3.16
2017-12-29T03:15:26.550Z,3.16
2017-12-29T03:17:56.114Z,3.16
2017-12-29T03:20:25.326Z,3.16
2017-12-29T03:22:54.528Z,3.13
2017-12-29T03:25:24.024Z,3.12
2017-12-29T03:27:53.250Z,3.11
2017-12-29T03:30:22.492Z,3.09
2017-12-29T03:32:52.037Z,3.12
2017-12-29T03:35:21.633Z,3.10
2017-12-29T03:37:50.862Z,3.12
2017-12-29T03:40:20.404Z,3.09
2017-12-29T03:42:49.646Z,3.06
2017-12-29T03:45:18.895Z,3.08
2017-12-29T03:47:48.530Z,3.10
2017-12-29T03:50:17.774Z,3.05
2017-12-29T03:52:47.053Z,3.05
2017-12-29T03:55:19.380Z,3.01
2017-12-29T03:57:48.652Z,3.01
2017-12-29T04:00:17.894Z,2.98
2017-12-29T04:02:47.446Z,2.97
2017-12-29T04:05:16.658Z,2.98
2017-12-29T04:07:45.861Z,2.99
2017-12-29T04:10:15.594Z,3.06
2017-12-29T04:12:44.809Z,3.08
2017-12-29T04:15:14.044Z,3.07
2017-12-29T04:17:43.563Z,3.18
2017-12-29T04:20:12.816Z,3.16
2017-12-29T04:22:42.146Z,3.30
2017-12-29T04:25:11.641Z,3.29
2017-12-29T04:27:40.934Z,3.37
2017-12-29T04:30:10.292Z,3.42
2017-12-29T04:32:39.797Z,3.53
2017-12-29T04:35:09.099Z,3.44
2017-12-29T04:37:38.326Z,3.48
2017-12-29T04:40:07.884Z,3.46
2017-12-29T04:42:37.118Z,3.48
2017-12-29T04:45:06.373Z,3.42
2017-12-29T04:47:35.581Z,3.40
2017-12-29T04:50:06.010Z,3.35
2017-12-29T04:52:35.527Z,3.32
2017-12-29T04:55:04.769Z,3.29
2017-12-29T04:57:33.977Z,3.31
2017-12-29T05:00:05.707Z,3.36
2017-12-29T05:02:34.954Z,3.37
2017-12-29T05:05:04.294Z,3.38
2017-12-29T05:07:33.853Z,3.46
2017-12-29T05:10:04.244Z,3.48
2017-12-29T05:12:33.590Z,3.50
2017-12-29T05:15:03.315Z,3.45
2017-12-29T05:17:32.531Z,3.51
2017-12-29T05:20:02.595Z,3.52
2017-12-29T05:22:32.111Z,3.57
2017-12-29T05:25:01.806Z,3.60
2017-12-29T05:27:31.041Z,3.70
2017-12-29T05:30:00.571Z,3.67
2017-12-29T05:33:59.058Z,3.71
2017-12-29T05:36:28.770Z,3.81
2017-12-29T05:38:58.173Z,3.81
2017-12-29T05:41:27.397Z,3.90
2017-12-29T05:43:56.937Z,3.97
2017-12-29T05:46:26.143Z,3.95
2017-12-29T05:48:55.583Z,3.97
2017-12-29T05:51:25.117Z,4.01
2017-12-29T05:53:54.483Z,3.98
2017-12-29T05:56:23.736Z,3.98
2017-12-29T05:58:53.230Z,3.99
2017-12-29T06:01:23.175Z,3.99
2017-12-29T06:03:52.394Z,4.03
2017-12-29T06:06:22.252Z,4.07
2017-12-29T06:08:51.492Z,3.98
2017-12-29T06:11:21.001Z,3.99
2017-12-29T06:13:51.689Z,4.04
2017-12-29T06:16:20.925Z,3.96
2017-12-29T06:18:50.204Z,4.04
2017-12-29T06:21:19.727Z,4.06
2017-12-29T06:23:48.931Z,4.12
2017-12-29T06:26:18.306Z,4.16
2017-12-29T06:28:47.770Z,4.17
2017-12-29T06:31:17.151Z,4.16
2017-12-29T06:33:46.380Z,4.15
2017-12-29T06:36:15.942Z,4.18
2017-12-29T06:38:45.173Z,4.20
2017-12-29T06:41:14.501Z,4.18
2017-12-29T06:43:43.997Z,4.24
2017-12-29T06:46:13.196Z,4.10
2017-12-29T06:48:42.428Z,4.11
2017-12-29T06:51:12.166Z,4.01
2017-12-29T06:53:41.424Z,4.02
2017-12-29T06:56:10.759Z,4.08
2017-12-29T06:58:40.456Z,4.10
2017-12-29T07:01:10.875Z,4.15
2017-12-29T07:03:40.179Z,4.12
2017-12-29T07:06:09.859Z,4.19
2017-12-29T07:08:39.090Z,4.14
2017-12-29T07:11:09.039Z,4.11
2017-12-29T07:13:38.573Z,4.16
2017-12-29T07:16:07.844Z,4.13
2017-12-29T07:18:37.102Z,4.13
2017-12-29T07:21:06.658Z,4.08
2017-12-29T07:23:35.963Z,4.14
2017-12-29T07:26:06.551Z,4.02
2017-12-29T07:28:37.459Z,4.05
2017-12-29T07:31:06.657Z,4.07
2017-12-29T07:33:36.167Z,4.09
2017-12-29T07:36:06.482Z,4.14
2017-12-29T07:38:35.842Z,4.20
2017-12-29T07:41:05.551Z,4.22
2017-12-29T07:43:35.341Z,4.22
2017-12-29T07:46:05.612Z,4.26
2017-12-29T07:48:35.443Z,4.28
2017-12-29T07:51:05.727Z,4.20
2017-12-29T07:53:34.985Z,4.26
2017-12-29T07:56:05.087Z,4.30
2017-12-29T07:58:34.636Z,4.33
2017-12-29T08:01:04.178Z,4.33
2017-12-29T08:03:34.485Z,4.25
2017-12-29T08:06:04.866Z,4.22
2017-12-29T08:08:34.114Z,4.25
2017-12-29T08:11:03.692Z,4.35
2017-12-29T08:13:33.277Z,4.34
2017-12-29T08:16:04.358Z,4.29
2017-12-29T08:18:34.259Z,4.24
2017-12-29T08:21:04.025Z,4.30
2017-12-29T08:23:33.559Z,4.35
2017-12-29T08:26:04.033Z,4.30
2017-12-29T08:28:33.352Z,4.36
2017-12-29T08:31:02.912Z,4.27
2017-12-29T08:33:32.391Z,4.38
2017-12-29T08:36:02.659Z,4.43
2017-12-29T08:38:31.972Z,4.63
2017-12-29T08:41:01.866Z,4.81
2017-12-29T08:43:32.260Z,4.82
2017-12-29T08:46:03.857Z,4.95
2017-12-29T08:48:33.499Z,5.03
2017-12-29T08:51:03.106Z,5.31
2017-12-29T08:53:32.403Z,5.37
2017-12-29T08:56:03.631Z,5.39
2017-12-29T08:58:32.995Z,5.33
2017-12-29T09:01:02.638Z,5.25
2017-12-29T09:03:32.283Z,5.23
2017-12-29T09:06:03.002Z,5.18
2017-12-29T09:08:32.252Z,5.23
2017-12-29T09:11:02.369Z,5.29
2017-12-29T09:13:31.770Z,5.50
2017-12-29T09:16:01.042Z,5.53
2017-12-29T09:18:30.954Z,5.64
2017-12-29T09:21:00.134Z,5.55
2017-12-29T09:23:29.477Z,5.54
2017-12-29T09:25:59.342Z,5.84
2017-12-29T09:28:28.831Z,5.74
2017-12-29T09:30:58.094Z,5.92
2017-12-29T09:33:28.267Z,5.85
2017-12-29T09:35:58.487Z,6.02
2017-12-29T09:38:35.131Z,6.02
2017-12-29T09:41:08.540Z,6.09
2017-12-29T09:43:47.224Z,6.14
2017-12-29T09:46:16.826Z,6.19
2017-12-29T09:48:46.387Z,6.20
2017-12-29T09:51:29.985Z,6.05
2017-12-29T09:53:59.672Z,6.24
2017-12-29T09:56:29.024Z,6.08
2017-12-29T09:58:58.295Z,6.07
2017-12-29T10:01:28.267Z,6.00
2017-12-29T10:03:57.544Z,5.96
2017-12-29T10:06:26.757Z,5.80
2017-12-29T10:08:56.439Z,5.83
2017-12-29T10:11:25.808Z,5.85
2017-12-29T10:13:55.624Z,5.80
2017-12-29T10:16:24.964Z,6.06
2017-12-29T10:18:54.210Z,6.11
2017-12-29T10:21:24.044Z,6.19
2017-12-29T10:23:53.276Z,6.27
2017-12-29T10:26:22.548Z,6.36
2017-12-29T10:28:52.182Z,6.43
2017-12-29T10:31:22.031Z,6.44
2017-12-29T10:33:51.309Z,6.58
2017-12-29T10:36:20.956Z,6.66
2017-12-29T10:38:50.203Z,6.85
2017-12-29T10:41:19.488Z,7.12
2017-12-29T10:43:49.153Z,6.86
2017-12-29T10:46:20.749Z,7.00
2017-12-29T10:48:50.021Z,7.06
2017-12-29T10:51:21.477Z,7.21
2017-12-29T10:53:51.018Z,7.49
2017-12-29T10:56:22.162Z,7.51
2017-12-29T10:58:52.252Z,7.58
2017-12-29T11:01:22.695Z,7.68
2017-12-29T11:03:52.144Z,7.68
2017-12-29T11:06:21.459Z,7.56
2017-12-29T11:08:50.696Z,7.16
2017-12-29T11:11:21.515Z,7.22
2017-12-29T11:13:53.625Z,7.23
2017-12-29T11:16:23.242Z,7.19
2017-12-29T11:18:52.924Z,7.46
2017-12-29T11:21:22.279Z,7.73
2017-12-29T11:23:51.632Z,8.13
2017-12-29T11:26:20.883Z,8.20
2017-12-29T11:28:50.101Z,9.33
2017-12-29T11:31:21.008Z,11.14
2017-12-29T11:33:50.417Z,14.33
2017-12-29T11:36:19.810Z,16.27
2017-12-29T11:38:49.445Z,16.91
2017-12-29T11:41:18.723Z,16.84
2017-12-29T11:43:48.023Z,16.01
2017-12-29T11:46:18.666Z,14.98
2017-12-29T11:48:47.906Z,14.75
2017-12-29T11:51:17.222Z,13.52
2017-12-29T11:53:46.923Z,12.54
2017-12-29T11:56:16.168Z,12.25
2017-12-29T11:58:45.522Z,12.14
2017-12-29T12:01:15.827Z,11.70
2017-12-29T12:03:45.209Z,11.37
2017-12-29T12:06:15.675Z,11.07
2017-12-29T12:08:45.387Z,10.71
2017-12-29T12:11:15.603Z,10.59
2017-12-29T12:13:44.908Z,10.56
2017-12-29T12:16:16.156Z,10.45
2017-12-29T12:18:45.399Z,10.24
2017-12-29T12:21:14.731Z,10.44
2017-12-29T12:23:44.282Z,10.20
2017-12-29T12:26:14.787Z,10.21
2017-12-29T12:28:45.111Z,9.79
2017-12-29T12:31:15.056Z,9.48
2017-12-29T12:33:44.328Z,9.28
2017-12-29T12:36:13.691Z,9.12
2017-12-29T12:38:43.241Z,9.10
2017-12-29T12:41:12.522Z,8.86
2017-12-29T12:43:41.808Z,8.85
2017-12-29T12:46:11.467Z,8.86
2017-12-29T12:48:40.740Z,8.67
2017-12-29T12:51:10.051Z,8.71
2017-12-29T12:53:39.779Z,8.31
2017-12-29T12:56:09.236Z,8.41
2017-12-29T13:01:02.306Z,8.11
2017-12-29T13:03:33.323Z,7.89
2017-12-29T13:06:03.586Z,7.95
2017-12-29T13:08:33.322Z,7.73
2017-12-29T13:11:02.769Z,7.72
2017-12-29T13:13:31.996Z,7.64
2017-12-29T13:16:03.366Z,7.33
2017-12-29T13:18:32.616Z,7.32
2017-12-29T13:21:02.089Z,7.47
2017-12-29T13:23:31.562Z,7.42
2017-12-29T13:26:01.043Z,7.24
2017-12-29T13:28:30.255Z,7.23
2017-12-29T13:30:59.764Z,7.23
2017-12-29T13:33:29.452Z,7.00
2017-12-29T13:35:58.771Z,6.81
2017-12-29T13:38:28.265Z,6.84
2017-12-29T13:40:57.524Z,6.89
2017-12-29T13:43:27.083Z,6.98
2017-12-29T13:45:56.308Z,6.93
2017-12-29T13:48:25.644Z,6.91
2017-12-29T13:50:54.886Z,6.90
2017-12-29T13:53:24.167Z,6.78
2017-12-29T13:55:53.710Z,6.67
2017-12-29T13:58:23.962Z,6.63
2017-12-29T14:00:53.181Z,6.74
2017-12-29T14:03:22.706Z,6.69
2017-12-29T14:05:51.958Z,6.63
2017-12-29T14:08:21.351Z,6.70
2017-12-29T14:10:50.873Z,6.69
2017-12-29T14:13:20.160Z,6.71
2017-12-29T14:15:49.372Z,6.75
2017-12-29T14:18:18.899Z,6.81
2017-12-29T14:20:48.202Z,6.77
2017-12-29T14:23:18.794Z,6.76
2017-12-29T14:25:48.881Z,6.79
2017-12-29T14:28:18.214Z,6.76
2017-12-29T14:30:47.703Z,6.69
2017-12-29T14:33:17.371Z,6.78
2017-12-29T14:35:46.690Z,6.80
2017-12-29T14:38:15.942Z,6.87
2017-12-29T14:40:45.490Z,6.85
2017-12-29T14:43:14.839Z,6.87
2017-12-29T14:45:44.086Z,6.80
2017-12-29T14:48:13.642Z,6.75
2017-12-29T14:50:42.931Z,6.72
2017-12-29T14:53:12.533Z,6.72
2017-12-29T14:55:42.086Z,6.75
2017-12-29T14:58:11.486Z,6.70
2017-12-29T15:00:40.906Z,6.71
2017-12-29T15:03:10.675Z,6.72
2017-12-29T15:05:40.032Z,6.71
2017-12-29T15:08:09.417Z,6.63
2017-12-29T15:10:39.159Z,6.67
2017-12-29T15:13:08.677Z,6.66
2017-12-29T15:15:38.055Z,6.67
2017-12-29T15:18:07.713Z,6.69
2017-12-29T15:20:36.995Z,6.65
2017-12-29T15:23:06.321Z,6.61
2017-12-29T15:25:35.843Z,6.61
2017-12-29T15:28:06.011Z,6.44
2017-12-29T15:30:35.242Z,6.43
2017-12-29T15:33:05.630Z,6.48
2017-12-29T15:35:35.723Z,6.40
2017-12-29T15:38:06.091Z,6.30
2017-12-29T15:40:35.684Z,6.41
2017-12-29T15:43:05.259Z,6.39
2017-12-29T15:45:34.488Z,6.45
2017-12-29T15:48:06.465Z,6.44
2017-12-29T15:50:36.097Z,6.34
2017-12-29T15:53:05.532Z,6.38
2017-12-29T15:55:35.192Z,6.30
2017-12-29T15:58:06.640Z,6.17
2017-12-29T16:00:35.963Z,6.10
2017-12-29T16:03:06.138Z,6.07
2017-12-29T16:05:36.200Z,6.01
2017-12-29T16:08:06.556Z,5.95
2017-12-29T16:10:36.074Z,5.85
2017-12-29T16:13:05.571Z,5.93
2017-12-29T16:15:34.801Z,5.96
2017-12-29T16:18:05.554Z,5.99
2017-12-29T16:20:34.821Z,5.89
2017-12-29T16:23:05.351Z,5.85
2017-12-29T16:25:34.944Z,5.66
2017-12-29T16:28:05.668Z,5.42
2017-12-29T16:30:35.115Z,5.39
2017-12-29T16:33:05.296Z,5.23
2017-12-29T16:35:34.849Z,4.98
2017-12-29T16:38:05.598Z,4.93
2017-12-29T16:40:35.905Z,4.94
2017-12-29T16:43:05.525Z,4.82
2017-12-29T16:45:35.621Z,4.82
2017-12-29T16:48:08.234Z,4.77
2017-12-29T16:50:37.495Z,4.69
2017-12-29T16:53:06.884Z,4.58
2017-12-29T16:55:38.390Z,4.59
2017-12-29T16:59:10.267Z,4.40
2017-12-29T17:01:39.845Z,4.53
2017-12-29T17:04:09.204Z,4.52
2017-12-29T17:06:38.477Z,4.37
2017-12-29T17:09:08.032Z,4.34
2017-12-29T17:11:37.315Z,4.33
2017-12-29T17:14:06.639Z,4.37
2017-12-29T17:16:36.706Z,4.38
2017-12-29T17:19:06.010Z,4.35
2017-12-29T17:21:35.410Z,4.44
2017-12-29T17:24:06.223Z,4.48
2017-12-29T17:26:35.483Z,4.53
2017-12-29T17:29:05.036Z,4.46
2017-12-29T17:31:34.607Z,4.46
2017-12-29T17:34:05.664Z,4.44
2017-12-29T17:36:34.928Z,4.37
2017-12-29T17:39:05.423Z,4.37
2017-12-29T17:41:34.631Z,4.42
2017-12-29T17:44:04.729Z,4.44
2017-12-29T17:46:35.567Z,4.34
2017-12-29T17:49:05.060Z,4.32
2017-12-29T17:51:34.610Z,4.24
2017-12-29T17:54:06.305Z,4.29
2017-12-29T17:56:35.774Z,4.32
2017-12-29T17:59:05.386Z,4.31
2017-12-29T18:01:34.622Z,4.25
2017-12-29T18:04:05.190Z,4.18
2017-12-29T18:06:34.409Z,4.22
2017-12-29T18:09:04.310Z,4.26
2017-12-29T18:11:36.777Z,4.19
2017-12-29T18:14:06.133Z,4.17
2017-12-29T18:16:35.531Z,4.26
2017-12-29T18:19:05.553Z,4.26
2017-12-29T18:21:34.825Z,4.30
2017-12-29T18:24:05.282Z,4.24
2017-12-29T18:26:34.960Z,4.21
2017-12-29T18:29:05.210Z,4.11
2017-12-29T18:31:34.833Z,4.08
2017-12-29T18:34:05.734Z,4.12
2017-12-29T18:36:34.979Z,4.01
2017-12-29T18:39:05.144Z,4.04
2017-12-29T18:41:36.152Z,4.07
2017-12-29T18:44:06.315Z,4.11
2017-12-29T18:46:35.710Z,4.12
2017-12-29T18:49:05.400Z,4.10
2017-12-29T18:51:34.698Z,4.08
2017-12-29T18:54:05.754Z,4.11
2017-12-29T18:56:35.289Z,4.11
2017-12-29T18:59:05.567Z,4.10
2017-12-29T19:01:34.939Z,4.11
2017-12-29T19:04:06.943Z,4.04
2017-12-29T19:06:36.203Z,4.10
2017-12-29T19:09:06.190Z,4.08
2017-12-29T19:11:35.723Z,3.99
2017-12-29T19:14:06.182Z,4.02
2017-12-29T19:16:35.437Z,4.01
2017-12-29T19:19:05.511Z,4.05
2017-12-29T19:21:34.738Z,4.07
2017-12-29T19:24:04.599Z,4.05
2017-12-29T19:26:35.871Z,4.02
2017-12-29T19:29:05.563Z,4.01
2017-12-29T19:31:36.456Z,4.00
2017-12-29T19:34:07.648Z,4.02
2017-12-29T19:36:36.897Z,3.99
2017-12-29T19:39:06.366Z,3.92
2017-12-29T19:41:36.021Z,4.00
2017-12-29T19:44:06.461Z,3.98
2017-12-29T19:46:37.625Z,3.96
2017-12-29T19:49:07.176Z,3.92
2017-12-29T19:51:36.446Z,3.94
2017-12-29T19:54:06.354Z,3.92
2017-12-29T19:56:35.861Z,3.93
2017-12-29T19:59:05.747Z,3.89
2017-12-29T20:01:34.993Z,3.84
2017-12-29T20:04:05.446Z,3.92
2017-12-29T20:06:34.716Z,3.88
2017-12-29T20:09:04.994Z,3.95
2017-12-29T20:11:34.315Z,4.02
2017-12-29T20:14:04.674Z,4.10
2017-12-29T20:16:35.296Z,4.12
2017-12-29T20:19:05.235Z,4.09
2017-12-29T20:21:34.536Z,4.17
2017-12-29T20:24:05.174Z,4.17
2017-12-29T20:26:34.412Z,4.14
2017-12-29T20:29:04.922Z,4.26
2017-12-29T20:31:34.251Z,4.35
2017-12-29T20:34:04.420Z,4.36
2017-12-29T20:36:33.618Z,4.36
2017-12-29T20:39:03.151Z,4.37
2017-12-29T20:41:33.442Z,4.34
2017-12-29T20:44:05.087Z,4.39
2017-12-29T20:46:34.488Z,4.38
2017-12-29T20:49:04.445Z,4.42
2017-12-29T20:51:33.655Z,4.41
2017-12-29T20:54:04.649Z,4.47
2017-12-29T20:56:33.886Z,4.50
2017-12-29T20:59:04.176Z,4.50
2017-12-29T21:01:34.329Z,4.55
2017-12-29T21:04:05.173Z,4.52
2017-12-29T21:06:34.418Z,4.59
2017-12-29T21:09:04.780Z,4.64
2017-12-29T21:11:34.525Z,4.65
2017-12-29T21:14:05.999Z,4.73
2017-12-29T21:16:35.563Z,4.73
2017-12-29T21:19:05.111Z,4.77
2017-12-29T21:21:34.671Z,4.77
2017-12-29T21:24:05.456Z,4.79
2017-12-29T21:29:13.299Z,4.71
2017-12-29T21:31:42.756Z,4.81
2017-12-29T21:34:12.962Z,4.85
2017-12-29T21:36:42.246Z,4.87
2017-12-29T21:39:12.163Z,4.97
2017-12-29T21:41:41.793Z,5.04
2017-12-29T21:44:14.962Z,5.07
2017-12-29T21:46:44.195Z,5.11
2017-12-29T21:49:13.715Z,5.17
2017-12-29T21:51:43.362Z,5.24
2017-12-29T21:54:12.740Z,5.31
2017-12-29T21:56:42.286Z,5.31
2017-12-29T21:59:11.657Z,5.34
2017-12-29T22:01:40.867Z,5.32
2017-12-29T22:04:10.203Z,5.38
2017-12-29T22:06:39.532Z,5.43
2017-12-29T22:09:09.151Z,5.51
2017-12-29T22:11:38.350Z,5.58
2017-12-29T22:14:07.616Z,5.69
2017-12-29T22:16:37.141Z,5.71
2017-12-29T22:19:06.657Z,5.68
2017-12-29T22:21:36.238Z,5.75
2017-12-29T22:24:06.770Z,5.81
2017-12-29T22:26:35.979Z,5.92
2017-12-29T22:29:05.213Z,5.88
2017-12-29T22:31:36.036Z,5.94
2017-12-29T22:34:07.211Z,5.98
2017-12-29T22:36:36.714Z,6.03
2017-12-29T22:39:06.497Z,6.09
2017-12-29T22:41:36.876Z,6.14
2017-12-29T22:44:06.448Z,6.12
2017-12-29T22:46:35.647Z,6.23
2017-12-29T22:49:04.935Z,6.22
2017-12-29T22:51:34.463Z,6.25
2017-12-29T22:54:04.785Z,6.29
2017-12-29T22:56:34.293Z,6.24
2017-12-29T22:59:04.235Z,6.34
2017-12-29T23:01:34.199Z,6.36
2017-12-29T23:04:04.615Z,6.35
2017-12-29T23:06:33.873Z,6.42
2017-12-29T23:09:04.451Z,6.40
2017-12-29T23:11:33.971Z,6.43
2017-12-29T23:14:04.183Z,6.43
2017-12-29T23:16:34.518Z,6.41
2017-12-29T23:19:05.607Z,6.44
2017-12-29T23:21:34.920Z,6.51
2017-12-29T23:24:06.255Z,6.56
2017-12-29T23:26:35.986Z,6.56
2017-12-29T23:29:07.495Z,6.62
2017-12-29T23:31:36.686Z,6.59
2017-12-29T23:34:05.999Z,6.62
2017-12-29T23:36:35.535Z,6.65
2017-12-29T23:39:06.910Z,6.64
2017-12-29T23:41:36.158Z,6.62
2017-12-29T23:44:06.941Z,6.62
2017-12-29T23:46:36.447Z,6.65
2017-12-29T23:49:06.525Z,6.69
2017-12-29T23:51:36.493Z,6.63
2017-12-29T23:54:07.496Z,6.63
2017-12-29T23:56:37.103Z,6.64
2017-12-29T23:59:06.316Z,6.62
